Time,TemperatureF,DewpointF,PressureIn,WindDirection,WindDirectionDegrees,WindSpeedMPH,WindSpeedGustMPH,Humidity,HourlyPrecipIn,Conditions,Clouds,dailyrainin,SolarRadiationWatts/m^2,SoftwareType,DateUTC
2013-06-30 00:01:00,81.0,76.0,-100.00,South,175,3.0,-999.0,85,0.00,,,-99.99,0.000000,,2013-06-30 04:01:00,
2013-06-30 00:22:00,80.0,75.0,-100.00,South,181,5.0,-999.0,85,0.00,,,-99.99,0.000000,,2013-06-30 04:22:00,
2013-06-30 00:33:00,80.0,75.0,-100.00,SSW,195,4.0,-999.0,84,0.00,,,-99.99,0.000000,,2013-06-30 04:33:00,
2013-06-30 00:53:00,80.0,75.0,-100.00,SSW,211,6.0,-999.0,84,0.00,,,-99.99,0.000000,,2013-06-30 04:53:00,
2013-06-30 01:02:00,79.0,73.0,-100.00,SW,218,3.0,-999.0,81,0.00,,,-99.99,0.000000,,2013-06-30 05:02:00,
2013-06-30 01:22:00,80.0,75.0,-100.00,SSW,202,3.0,-999.0,83,0.00,,,-99.99,0.000000,,2013-06-30 05:22:00,
2013-06-30 01:34:00,80.0,75.0,-100.00,South,189,3.0,-999.0,83,0.00,,,-99.99,0.000000,,2013-06-30 05:34:00,
2013-06-30 01:53:00,80.0,75.0,-100.00,South,184,3.0,-999.0,84,0.00,,,-99.99,0.000000,,2013-06-30 05:53:00,
2013-06-30 02:02:00,80.0,75.0,-100.00,South,180,4.0,-999.0,84,0.00,,,-99.99,0.000000,,2013-06-30 06:02:00,
2013-06-30 02:23:00,80.0,75.0,-100.00,South,182,3.0,-999.0,84,0.00,,,-99.99,0.000000,,2013-06-30 06:23:00,
2013-06-30 02:34:00,79.0,75.0,-100.00,SSW,195,3.0,-999.0,85,0.00,,,-99.99,0.000000,,2013-06-30 06:34:00,
2013-06-30 02:53:00,79.0,75.0,-100.00,South,188,3.0,-999.0,86,0.00,,,-99.99,0.000000,,2013-06-30 06:53:00,
2013-06-30 03:02:00,79.0,75.0,-100.00,SSW,202,3.0,-999.0,86,0.00,,,-99.99,0.000000,,2013-06-30 07:02:00,
2013-06-30 03:22:00,79.0,75.0,-100.00,SSW,202,4.0,-999.0,86,0.00,,,-99.99,0.000000,,2013-06-30 07:22:00,
2013-06-30 03:33:00,79.0,75.0,-100.00,SSW,203,4.0,-999.0,86,0.00,,,-99.99,0.000000,,2013-06-30 07:33:00,
2013-06-30 03:53:00,79.0,75.0,-100.00,SW,216,3.0,-999.0,86,0.00,,,-99.99,0.000000,,2013-06-30 07:53:00,
2013-06-30 04:02:00,79.0,75.0,-100.00,SW,219,3.0,-999.0,85,0.00,,,-99.99,0.000000,,2013-06-30 08:02:00,
2013-06-30 04:22:00,79.0,75.0,-100.00,SW,215,3.0,-999.0,85,0.00,,,-99.99,0.000000,,2013-06-30 08:22:00,
2013-06-30 04:33:00,79.0,75.0,-100.00,SW,219,3.0,-999.0,86,0.00,,,-99.99,0.000000,,2013-06-30 08:33:00,
2013-06-30 04:53:00,79.0,75.0,-100.00,SSW,205,4.0,-999.0,86,0.00,,,-99.99,0.000000,,2013-06-30 08:53:00,
2013-06-30 05:01:00,79.0,75.0,-100.00,SW,216,3.0,-999.0,86,0.00,,,-99.99,0.000000,,2013-06-30 09:01:00,
2013-06-30 05:23:00,79.0,75.0,-100.00,SSW,210,2.0,-999.0,86,0.00,,,-99.99,0.000000,,2013-06-30 09:23:00,
2013-06-30 05:34:00,79.0,75.0,-100.00,SSW,198,3.0,-999.0,87,0.00,,,-99.99,0.000000,,2013-06-30 09:34:00,
2013-06-30 05:53:00,79.0,75.0,-100.00,SSW,206,3.0,-999.0,87,0.00,,,-99.99,0.000000,,2013-06-30 09:53:00,
2013-06-30 06:02:00,78.0,74.0,-100.00,SSW,212,3.0,-999.0,86,0.00,,,-99.99,0.000000,,2013-06-30 10:02:00,
2013-06-30 06:22:00,79.0,76.0,-100.00,SSW,202,3.0,-999.0,88,0.00,,,-99.99,0.000000,,2013-06-30 10:22:00,
2013-06-30 06:33:00,79.0,76.0,-100.00,SSW,202,3.0,-999.0,88,0.00,,,-99.99,0.000000,,2013-06-30 10:33:00,
2013-06-30 06:53:00,79.0,76.0,-100.00,SSW,212,3.0,-999.0,89,0.00,,,-99.99,0.200000,,2013-06-30 10:53:00,
2013-06-30 07:02:00,79.0,76.0,-100.00,SW,215,3.0,-999.0,89,0.00,,,-99.99,5.700000,,2013-06-30 11:02:00,
2013-06-30 07:22:00,80.0,76.0,-100.00,SSW,208,4.0,-999.0,89,0.00,,,-99.99,17.400000,,2013-06-30 11:22:00,
2013-06-30 07:53:00,81.0,77.0,-100.00,SW,217,4.0,-999.0,88,0.00,,,-99.99,77.099998,,2013-06-30 11:53:00,
2013-06-30 08:02:00,81.0,77.0,-100.00,SSW,205,4.0,-999.0,86,0.00,,,-99.99,135.100006,,2013-06-30 12:02:00,
2013-06-30 08:24:00,82.0,77.0,-100.00,SW,216,5.0,-999.0,84,0.00,,,-99.99,179.000000,,2013-06-30 12:24:00,
2013-06-30 08:52:00,84.0,78.0,-100.00,SW,216,7.0,-999.0,81,0.00,,,-99.99,274.000000,,2013-06-30 12:52:00,
2013-06-30 09:22:00,85.0,78.0,-100.00,SSW,211,8.0,-999.0,77,0.00,,,-99.99,400.700012,,2013-06-30 13:22:00,
2013-06-30 09:53:00,86.0,77.0,-100.00,SSW,208,9.0,-999.0,73,0.00,,,-99.99,532.599976,,2013-06-30 13:53:00,
2013-06-30 10:02:00,87.0,77.0,-100.00,SW,217,10.0,-999.0,71,0.00,,,-99.99,573.799988,,2013-06-30 14:02:00,
2013-06-30 10:22:00,87.0,76.0,-100.00,SW,227,9.0,-999.0,70,0.00,,,-99.99,534.200012,,2013-06-30 14:22:00,
2013-06-30 10:33:00,87.0,76.0,-100.00,SW,224,12.0,-999.0,69,0.00,,,-99.99,599.700012,,2013-06-30 14:33:00,
2013-06-30 11:02:00,87.0,75.0,-100.00,SW,221,11.0,-999.0,67,0.00,,,-99.99,393.600006,,2013-06-30 15:02:00,
2013-06-30 11:23:00,87.0,75.0,-100.00,SSW,212,10.0,-999.0,67,0.00,,,-99.99,314.799988,,2013-06-30 15:23:00,
2013-06-30 11:53:00,84.0,76.0,-100.00,SSE,166,6.0,-999.0,77,0.00,,,-99.99,259.899994,,2013-06-30 15:53:00,
2013-06-30 12:01:00,85.0,77.0,-100.00,South,185,9.0,-999.0,76,0.03,,,-99.99,329.299988,,2013-06-30 16:01:00,
2013-06-30 12:21:00,83.0,76.0,-100.00,SSW,195,8.0,-999.0,79,0.00,,,-99.99,610.099976,,2013-06-30 16:21:00,
2013-06-30 12:34:00,87.0,79.0,-100.00,SSW,204,8.0,-999.0,78,0.00,,,-99.99,943.000000,,2013-06-30 16:34:00,
2013-06-30 12:53:00,88.0,77.0,-100.00,SSW,192,11.0,-999.0,68,0.00,,,-99.99,702.000000,,2013-06-30 16:53:00,
2013-06-30 13:23:00,90.0,76.0,-100.00,South,189,12.0,-999.0,63,0.00,,,-99.99,877.000000,,2013-06-30 17:23:00,
2013-06-30 13:53:00,91.0,75.0,-100.00,SSW,196,12.0,-999.0,60,0.00,,,-99.99,974.000000,,2013-06-30 17:53:00,
2013-06-30 14:02:00,90.0,75.0,-100.00,South,181,12.0,-999.0,61,0.00,,,-99.99,835.000000,,2013-06-30 18:02:00,
2013-06-30 14:22:00,90.0,76.0,-100.00,South,184,13.0,-999.0,62,0.00,,,-99.99,941.000000,,2013-06-30 18:22:00,
2013-06-30 14:53:00,85.0,74.0,-100.00,SW,223,12.0,-999.0,70,0.00,,,-99.99,830.000000,,2013-06-30 18:53:00,
2013-06-30 15:01:00,86.0,78.0,-100.00,SW,216,9.0,-999.0,77,0.03,,,-99.99,1031.000000,,2013-06-30 19:01:00,
2013-06-30 15:22:00,87.0,77.0,-100.00,SSW,203,10.0,-999.0,72,0.00,,,-99.99,773.000000,,2013-06-30 19:22:00,
2013-06-30 15:53:00,86.0,77.0,-100.00,SSW,199,8.0,-999.0,73,0.00,,,-99.99,136.800003,,2013-06-30 19:53:00,
2013-06-30 16:22:00,87.0,76.0,-100.00,SSW,194,10.0,-999.0,69,0.00,,,-99.99,315.100006,,2013-06-30 20:22:00,
2013-06-30 16:52:00,87.0,76.0,-100.00,South,184,10.0,-999.0,71,0.00,,,-99.99,133.199997,,2013-06-30 20:52:00,
2013-06-30 17:22:00,89.0,76.0,-100.00,SSW,196,10.0,-999.0,66,0.00,,,-99.99,491.299988,,2013-06-30 21:22:00,
2013-06-30 17:34:00,87.0,76.0,-100.00,SSW,195,12.0,-999.0,68,0.00,,,-99.99,159.800003,,2013-06-30 21:34:00,
2013-06-30 17:53:00,88.0,76.0,-100.00,SSW,198,10.0,-999.0,68,0.00,,,-99.99,216.800003,,2013-06-30 21:53:00,
2013-06-30 18:01:00,88.0,76.0,-100.00,SSW,194,10.0,-999.0,68,0.00,,,-99.99,209.199997,,2013-06-30 22:01:00,
2013-06-30 18:22:00,86.0,75.0,-100.00,SSW,193,10.0,-999.0,69,0.00,,,-99.99,57.700001,,2013-06-30 22:22:00,
2013-06-30 18:53:00,87.0,75.0,-100.00,SSW,193,10.0,-999.0,69,0.00,,,-99.99,113.099998,,2013-06-30 22:53:00,
2013-06-30 19:02:00,86.0,75.0,-100.00,South,191,10.0,-999.0,69,0.00,,,-99.99,76.800003,,2013-06-30 23:02:00,
2013-06-30 19:22:00,86.0,75.0,-100.00,SSW,193,8.0,-999.0,70,0.00,,,-99.99,80.300003,,2013-06-30 23:22:00,
2013-06-30 19:33:00,86.0,76.0,-100.00,South,189,9.0,-999.0,71,0.00,,,-99.99,61.299999,,2013-06-30 23:33:00,
2013-06-30 19:53:00,85.0,75.0,-100.00,SSW,195,11.0,-999.0,73,0.00,,,-99.99,40.099998,,2013-06-30 23:53:00,
2013-06-30 20:22:00,81.0,75.0,-100.00,SSW,199,6.0,-999.0,81,0.03,,,-99.99,4.800000,,2013-07-01 00:22:00,
2013-06-30 20:52:00,79.0,75.0,-100.00,South,189,6.0,-999.0,87,0.00,,,-99.99,0.000000,,2013-07-01 00:52:00,
2013-06-30 21:01:00,79.0,75.0,-100.00,SSW,202,5.0,-999.0,88,0.00,,,-99.99,0.000000,,2013-07-01 01:01:00,
2013-06-30 21:22:00,79.0,75.0,-100.00,SSW,203,5.0,-999.0,88,0.00,,,-99.99,0.000000,,2013-07-01 01:22:00,
2013-06-30 21:42:00,79.0,75.0,-100.00,SSW,199,6.0,-999.0,88,0.00,,,-99.99,0.000000,,2013-07-01 01:42:00,
2013-06-30 21:52:00,79.0,76.0,-100.00,SSW,199,4.0,-999.0,88,0.00,,,-99.99,0.000000,,2013-07-01 01:52:00,
2013-06-30 22:02:00,79.0,76.0,-100.00,SSW,199,4.0,-999.0,88,0.00,,,-99.99,0.000000,,2013-07-01 02:02:00,
2013-06-30 22:22:00,80.0,76.0,-100.00,SW,225,2.0,-999.0,89,0.00,,,-99.99,0.000000,,2013-07-01 02:22:00,
2013-06-30 22:44:00,80.0,76.0,-100.00,SSW,192,4.0,-999.0,89,0.00,,,-99.99,0.000000,,2013-07-01 02:44:00,
2013-06-30 22:54:00,80.0,76.0,-100.00,South,191,3.0,-999.0,90,0.00,,,-99.99,0.000000,,2013-07-01 02:54:00,
2013-06-30 23:01:00,80.0,77.0,-100.00,SSE,165,3.0,-999.0,90,0.00,,,-99.99,0.000000,,2013-07-01 03:01:00,
2013-06-30 23:23:00,80.0,77.0,-100.00,SSW,194,4.0,-999.0,89,0.00,,,-99.99,0.000000,,2013-07-01 03:23:00,
2013-06-30 23:52:00,80.0,76.0,-100.00,SSW,209,4.0,-999.0,87,0.00,,,-99.99,0.000000,,2013-07-01 03:52:00,